sensor_id;sensor_type;location;lat;lon;timestamp;pressure;altitude;pressure_sealevel;temperature;humidity
62103;BME280;48077;48.104;11.702;2023-04-15T00:01:14;94423.81;;;3.16;100.00
62103;BME280;48077;48.104;11.702;2023-04-15T00:07:42;94426.63;;;3.21;100.00
62103;BME280;48077;48.104;11.702;2023-04-15T00:10:06;94430.28;;;3.20;100.00
62103;BME280;48077;48.104;11.702;2023-04-15T00:12:29;94414.31;;;3.15;100.00
62103;BME280;48077;48.104;11.702;2023-04-15T00:14:53;94390.88;;;3.00;100.00
62103;BME280;48077;48.104;11.702;2023-04-15T00:17:19;94395.53;;;3.04;100.00
62103;BME280;48077;48.104;11.702;2023-04-15T00:19:42;94398.16;;;3.04;100.00
62103;BME280;48077;48.104;11.702;2023-04-15T00:22:07;94420.53;;;3.20;100.00
62103;BME280;48077;48.104;11.702;2023-04-15T00:24:31;94421.56;;;3.19;100.00
62103;BME280;48077;48.104;11.702;2023-04-15T00:26:57;94400.94;;;3.10;100.00
62103;BME280;48077;48.104;11.702;2023-04-15T00:29:20;94401.97;;;3.09;100.00
62103;BME280;48077;48.104;11.702;2023-04-15T00:31:44;94399.28;;;3.15;100.00
62103;BME280;48077;48.104;11.702;2023-04-15T00:34:07;94408.38;;;3.19;100.00
62103;BME280;48077;48.104;11.702;2023-04-15T00:36:31;94390.19;;;3.11;100.00
62103;BME280;48077;48.104;11.702;2023-04-15T00:38:56;94403.31;;;3.18;100.00
62103;BME280;48077;48.104;11.702;2023-04-15T00:41:19;94390.59;;;3.08;100.00
62103;BME280;48077;48.104;11.702;2023-04-15T00:43:43;94370.22;;;2.97;100.00
62103;BME280;48077;48.104;11.702;2023-04-15T00:46:10;94387.19;;;3.08;100.00
62103;BME280;48077;48.104;11.702;2023-04-15T00:48:37;94374.44;;;3.04;100.00
62103;BME280;48077;48.104;11.702;2023-04-15T00:51:01;94394.81;;;3.16;100.00
62103;BME280;48077;48.104;11.702;2023-04-15T00:53:24;94375.66;;;3.02;100.00
62103;BME280;48077;48.104;11.702;2023-04-15T00:55:48;94401.50;;;3.18;100.00
62103;BME280;48077;48.104;11.702;2023-04-15T00:58:12;94403.91;;;3.20;100.00
62103;BME280;48077;48.104;11.702;2023-04-15T01:00:36;94409.78;;;3.22;100.00
62103;BME280;48077;48.104;11.702;2023-04-15T01:02:59;94385.13;;;3.10;100.00
62103;BME280;48077;48.104;11.702;2023-04-15T01:05:22;94399.72;;;3.12;100.00
62103;BME280;48077;48.104;11.702;2023-04-15T01:07:47;94381.31;;;3.06;100.00
62103;BME280;48077;48.104;11.702;2023-04-15T01:10:10;94393.63;;;3.12;100.00
62103;BME280;48077;48.104;11.702;2023-04-15T01:12:34;94365.34;;;3.00;100.00
62103;BME280;48077;48.104;11.702;2023-04-15T01:14:59;94403.72;;;3.21;100.00
62103;BME280;48077;48.104;11.702;2023-04-15T01:17:23;94372.22;;;3.01;100.00
62103;BME280;48077;48.104;11.702;2023-04-15T01:19:47;94386.38;;;3.07;100.00
62103;BME280;48077;48.104;11.702;2023-04-15T01:22:11;94380.91;;;3.02;100.00
62103;BME280;48077;48.104;11.702;2023-04-15T01:24:35;94403.31;;;3.18;100.00
62103;BME280;48077;48.104;11.702;2023-04-15T01:26:59;94397.91;;;3.13;100.00
62103;BME280;48077;48.104;11.702;2023-04-15T01:29:23;94393.47;;;3.07;100.00
62103;BME280;48077;48.104;11.702;2023-04-15T01:31:53;94399.50;;;3.14;100.00
62103;BME280;48077;48.104;11.702;2023-04-15T01:34:17;94397.91;;;3.13;100.00
62103;BME280;48077;48.104;11.702;2023-04-15T01:36:40;94385.56;;;3.07;100.00
62103;BME280;48077;48.104;11.702;2023-04-15T01:39:04;94402.34;;;3.12;100.00
62103;BME280;48077;48.104;11.702;2023-04-15T01:41:29;94408.38;;;3.19;100.00
62103;BME280;48077;48.104;11.702;2023-04-15T01:43:53;94372.88;;;2.97;100.00
62103;BME280;48077;48.104;11.702;2023-04-15T01:46:19;94380.31;;;3.07;100.00
62103;BME280;48077;48.104;11.702;2023-04-15T01:48:43;94403.97;;;3.13;100.00
62103;BME280;48077;48.104;11.702;2023-04-15T01:51:07;94398.91;;;3.12;100.00
62103;BME280;48077;48.104;11.702;2023-04-15T01:53:30;94392.06;;;3.04;100.00
62103;BME280;48077;48.104;11.702;2023-04-15T01:55:56;94405.38;;;3.16;100.00
62103;BME280;48077;48.104;11.702;2023-04-15T01:58:20;94411.03;;;3.19;100.00
62103;BME280;48077;48.104;11.702;2023-04-15T02:00:44;94408.19;;;3.21;100.00
62103;BME280;48077;48.104;11.702;2023-04-15T02:03:10;94393.47;;;3.07;100.00
62103;BME280;48077;48.104;11.702;2023-04-15T02:05:33;94393.47;;;3.07;100.00
62103;BME280;48077;48.104;11.702;2023-04-15T02:07:57;94369.44;;;2.96;100.00
62103;BME280;48077;48.104;11.702;2023-04-15T02:10:20;94389.41;;;3.11;100.00
62103;BME280;48077;48.104;11.702;2023-04-15T02:12:43;94385.94;;;3.10;100.00
62103;BME280;48077;48.104;11.702;2023-04-15T02:15:10;94387.97;;;3.08;100.00
62103;BME280;48077;48.104;11.702;2023-04-15T02:17:34;94403.53;;;3.16;100.00
62103;BME280;48077;48.104;11.702;2023-04-15T02:19:57;94387.78;;;3.10;100.00
62103;BME280;48077;48.104;11.702;2023-04-15T02:22:21;94381.16;;;3.00;100.00
62103;BME280;48077;48.104;11.702;2023-04-15T02:24:44;94391.44;;;3.09;100.00
62103;BME280;48077;48.104;11.702;2023-04-15T02:27:09;94374.91;;;2.95;100.00
62103;BME280;48077;48.104;11.702;2023-04-15T02:29:32;94391.66;;;3.07;100.00
62103;BME280;48077;48.104;11.702;2023-04-15T02:31:55;94385.56;;;3.07;100.00
62103;BME280;48077;48.104;11.702;2023-04-15T02:34:19;94391.59;;;3.14;100.00
62103;BME280;48077;48.104;11.702;2023-04-15T02:36:42;94385.97;;;3.03;100.00
62103;BME280;48077;48.104;11.702;2023-04-15T02:39:08;94367.44;;;2.92;100.00
62103;BME280;48077;48.104;11.702;2023-04-15T02:41:34;94379.13;;;3.02;100.00
62103;BME280;48077;48.104;11.702;2023-04-15T02:43:58;94396.28;;;3.12;100.00
62103;BME280;48077;48.104;11.702;2023-04-15T02:46:22;94387.19;;;3.08;100.00
62103;BME280;48077;48.104;11.702;2023-04-15T02:48:48;94398.50;;;3.15;100.00
62103;BME280;48077;48.104;11.702;2023-04-15T02:51:16;94391.38;;;3.15;100.00
62103;BME280;48077;48.104;11.702;2023-04-15T02:53:39;94373.63;;;3.04;100.00
62103;BME280;48077;48.104;11.702;2023-04-15T02:56:03;94378.69;;;3.06;100.00
62103;BME280;48077;48.104;11.702;2023-04-15T02:58:28;94380.66;;;3.10;100.00
62103;BME280;48077;48.104;11.702;2023-04-15T03:00:51;94385.53;;;3.13;100.00
62103;BME280;48077;48.104;11.702;2023-04-15T03:03:15;94380.06;;;3.08;100.00
62103;BME280;48077;48.104;11.702;2023-04-15T03:05:38;94401.09;;;3.21;100.00
62103;BME280;48077;48.104;11.702;2023-04-15T03:08:01;94277.00;;;2.41;100.00
62103;BME280;48077;48.104;11.702;2023-04-15T03:10:27;94243.34;;;2.18;100.00
62103;BME280;48077;48.104;11.702;2023-04-15T03:12:51;94343.75;;;2.85;100.00
62103;BME280;48077;48.104;11.702;2023-04-15T03:15:16;94279.44;;;2.42;100.00
62103;BME280;48077;48.104;11.702;2023-04-15T03:17:40;94405.31;;;3.22;100.00
62103;BME280;48077;48.104;11.702;2023-04-15T03:20:04;94407.16;;;3.22;100.00
62103;BME280;48077;48.104;11.702;2023-04-15T03:22:34;94397.66;;;3.14;100.00
62103;BME280;48077;48.104;11.702;2023-04-15T03:24:57;94281.25;;;2.42;100.00
62103;BME280;48077;48.104;11.702;2023-04-15T03:27:21;94402.31;;;3.19;100.00
62103;BME280;48077;48.104;11.702;2023-04-15T03:29:44;94390.78;;;3.13;100.00
62103;BME280;48077;48.104;11.702;2023-04-15T03:32:08;94411.38;;;3.30;100.00
62103;BME280;48077;48.104;11.702;2023-04-15T03:34:31;94349.22;;;2.90;100.00
62103;BME280;48077;48.104;11.702;2023-04-15T03:36:57;94350.59;;;2.93;100.00
62103;BME280;48077;48.104;11.702;2023-04-15T03:39:20;94370.38;;;3.02;100.00
62103;BME280;48077;48.104;11.702;2023-04-15T03:41:43;94318.97;;;2.68;100.00
62103;BME280;48077;48.104;11.702;2023-04-15T03:44:10;94360.69;;;2.96;100.00
62103;BME280;48077;48.104;11.702;2023-04-15T03:46:36;94303.84;;;2.56;100.00
62103;BME280;48077;48.104;11.702;2023-04-15T03:49:00;94284.66;;;2.49;100.00
62103;BME280;48077;48.104;11.702;2023-04-15T03:51:26;94275.56;;;2.45;100.00
62103;BME280;48077;48.104;11.702;2023-04-15T03:53:49;94374.22;;;3.06;100.00
62103;BME280;48077;48.104;11.702;2023-04-15T03:56:13;94366.53;;;3.04;100.00
62103;BME280;48077;48.104;11.702;2023-04-15T03:58:36;94365.72;;;3.04;100.00
62103;BME280;48077;48.104;11.702;2023-04-15T04:01:00;94292.88;;;2.59;100.00
62103;BME280;48077;48.104;11.702;2023-04-15T04:03:23;94398.38;;;3.28;100.00
62103;BME280;48077;48.104;11.702;2023-04-15T04:05:46;94406.28;;;3.28;100.00
62103;BME280;48077;48.104;11.702;2023-04-15T04:08:10;94291.28;;;2.58;100.00
62103;BME280;48077;48.104;11.702;2023-04-15T04:10:35;94370.19;;;3.03;100.00
62103;BME280;48077;48.104;11.702;2023-04-15T04:13:04;94283.25;;;2.47;100.00
62103;BME280;48077;48.104;11.702;2023-04-15T04:15:27;94295.97;;;2.56;100.00
62103;BME280;48077;48.104;11.702;2023-04-15T04:17:50;94296.16;;;2.55;100.00
62103;BME280;48077;48.104;11.702;2023-04-15T04:20:16;94410.38;;;3.24;100.00
62103;BME280;48077;48.104;11.702;2023-04-15T04:22:40;94292.72;;;2.54;100.00
62103;BME280;48077;48.104;11.702;2023-04-15T04:25:03;94356.03;;;2.98;100.00
62103;BME280;48077;48.104;11.702;2023-04-15T04:27:30;94352.59;;;2.97;100.00
62103;BME280;48077;48.104;11.702;2023-04-15T04:29:53;94388.31;;;3.18;100.00
62103;BME280;48077;48.104;11.702;2023-04-15T04:32:17;94307.44;;;2.62;100.00
62103;BME280;48077;48.104;11.702;2023-04-15T04:34:40;94313.16;;;2.59;100.00
62103;BME280;48077;48.104;11.702;2023-04-15T04:37:04;94359.75;;;2.90;100.00
62103;BME280;48077;48.104;11.702;2023-04-15T04:39:29;94421.91;;;3.30;100.00
62103;BME280;48077;48.104;11.702;2023-04-15T04:41:53;94419.47;;;3.28;100.00
62103;BME280;48077;48.104;11.702;2023-04-15T04:44:17;94420.50;;;3.27;100.00
62103;BME280;48077;48.104;11.702;2023-04-15T04:46:40;94410.44;;;3.17;100.00
62103;BME280;48077;48.104;11.702;2023-04-15T04:49:03;94426.59;;;3.28;100.00
62103;BME280;48077;48.104;11.702;2023-04-15T04:51:27;94423.94;;;3.28;100.00
62103;BME280;48077;48.104;11.702;2023-04-15T04:53:50;94406.41;;;3.15;100.00
62103;BME280;48077;48.104;11.702;2023-04-15T04:56:13;94416.69;;;3.23;100.00
62103;BME280;48077;48.104;11.702;2023-04-15T04:58:37;94403.53;;;3.16;100.00
62103;BME280;48077;48.104;11.702;2023-04-15T05:01:00;94407.78;;;3.17;100.00
62103;BME280;48077;48.104;11.702;2023-04-15T05:03:25;94419.47;;;3.28;100.00
62103;BME280;48077;48.104;11.702;2023-04-15T05:05:48;94403.97;;;3.13;100.00
62103;BME280;48077;48.104;11.702;2023-04-15T05:08:12;94382.34;;;3.04;100.00
62103;BME280;48077;48.104;11.702;2023-04-15T05:10:35;94413.59;;;3.26;100.00
62103;BME280;48077;48.104;11.702;2023-04-15T05:12:58;94420.88;;;3.31;100.00
62103;BME280;48077;48.104;11.702;2023-04-15T05:15:22;94389.16;;;3.12;100.00
62103;BME280;48077;48.104;11.702;2023-04-15T05:17:47;94418.63;;;3.34;100.00
62103;BME280;48077;48.104;11.702;2023-04-15T05:20:11;94388.16;;;3.13;100.00
62103;BME280;48077;48.104;11.702;2023-04-15T05:22:34;94418.41;;;3.36;100.00
62103;BME280;48077;48.104;11.702;2023-04-15T05:24:58;94393.38;;;3.20;100.00
62103;BME280;48077;48.104;11.702;2023-04-15T05:27:22;94416.41;;;3.31;100.00
62103;BME280;48077;48.104;11.702;2023-04-15T05:29:46;94383.09;;;3.12;100.00
62103;BME280;48077;48.104;11.702;2023-04-15T05:32:09;94413.94;;;3.36;100.00
62103;BME280;48077;48.104;11.702;2023-04-15T05:34:33;94418.56;;;3.41;100.00
62103;BME280;48077;48.104;11.702;2023-04-15T05:36:56;94401.22;;;3.27;100.00
62103;BME280;48077;48.104;11.702;2023-04-15T05:39:20;94399.19;;;3.29;100.00
62103;BME280;48077;48.104;11.702;2023-04-15T05:41:44;94420.78;;;3.44;100.00
62103;BME280;48077;48.104;11.702;2023-04-15T05:44:10;94396.56;;;3.29;100.00
62103;BME280;48077;48.104;11.702;2023-04-15T05:46:36;94408.22;;;3.39;100.00
62103;BME280;48077;48.104;11.702;2023-04-15T05:48:59;94411.25;;;3.43;100.00
62103;BME280;48077;48.104;11.702;2023-04-15T05:51:23;94422.97;;;3.47;100.00
62103;BME280;48077;48.104;11.702;2023-04-15T05:53:49;94408.41;;;3.44;100.00
62103;BME280;48077;48.104;11.702;2023-04-15T05:56:12;94405.56;;;3.46;100.00
62103;BME280;48077;48.104;11.702;2023-04-15T05:58:36;94402.69;;;3.48;100.00
62103;BME280;48077;48.104;11.702;2023-04-15T06:01:02;94395.88;;;3.40;100.00
62103;BME280;48077;48.104;11.702;2023-04-15T06:03:25;94358.25;;;3.26;100.00
62103;BME280;48077;48.104;11.702;2023-04-15T06:05:48;94409.13;;;3.58;100.00
62103;BME280;48077;48.104;11.702;2023-04-15T06:08:12;94421.59;;;3.70;100.00
62103;BME280;48077;48.104;11.702;2023-04-15T06:10:36;94426.66;;;3.71;100.00
62103;BME280;48077;48.104;11.702;2023-04-15T06:12:59;94427.06;;;3.68;100.00
62103;BME280;48077;48.104;11.702;2023-04-15T06:15:23;94416.97;;;3.65;100.00
62103;BME280;48077;48.104;11.702;2023-04-15T06:17:46;94405.66;;;3.58;100.00
62103;BME280;48077;48.104;11.702;2023-04-15T06:20:10;94433.47;;;3.79;100.00
62103;BME280;48077;48.104;11.702;2023-04-15T06:22:33;94431.50;;;3.74;100.00
62103;BME280;48077;48.104;11.702;2023-04-15T06:24:58;94431.59;;;3.86;100.00
62103;BME280;48077;48.104;11.702;2023-04-15T06:27:22;94418.88;;;3.76;100.00
62103;BME280;48077;48.104;11.702;2023-04-15T06:29:45;94422.72;;;3.80;100.00
62103;BME280;48077;48.104;11.702;2023-04-15T06:32:10;94434.75;;;3.95;100.00
62103;BME280;48077;48.104;11.702;2023-04-15T06:34:37;94410.88;;;3.90;100.00
62103;BME280;48077;48.104;11.702;2023-04-15T06:37:00;94426.94;;;4.07;100.00
62103;BME280;48077;48.104;11.702;2023-04-15T06:39:26;94430.19;;;4.09;100.00
62103;BME280;48077;48.104;11.702;2023-04-15T06:41:50;94414.34;;;4.09;100.00
62103;BME280;48077;48.104;11.702;2023-04-15T06:44:13;94421.53;;;4.20;100.00
62103;BME280;48077;48.104;11.702;2023-04-15T06:46:36;94410.31;;;4.24;100.00
62103;BME280;48077;48.104;11.702;2023-04-15T06:49:00;94428.38;;;4.46;100.00
62103;BME280;48077;48.104;11.702;2023-04-15T06:51:23;94415.59;;;4.43;100.00
62103;BME280;48077;48.104;11.702;2023-04-15T06:53:47;94409.63;;;4.47;100.00
62103;BME280;48077;48.104;11.702;2023-04-15T06:56:10;94416.25;;;4.57;100.00
62103;BME280;48077;48.104;11.702;2023-04-15T06:58:33;94412.72;;;4.63;100.00
62103;BME280;48077;48.104;11.702;2023-04-15T07:00:57;94434.84;;;4.80;100.00
62103;BME280;48077;48.104;11.702;2023-04-15T07:03:20;94436.19;;;4.90;100.00
62103;BME280;48077;48.104;11.702;2023-04-15T07:05:44;94435.25;;;4.96;100.00
62103;BME280;48077;48.104;11.702;2023-04-15T07:08:07;94442.34;;;5.14;100.00
62103;BME280;48077;48.104;11.702;2023-04-15T07:10:34;94433.84;;;5.12;100.00
62103;BME280;48077;48.104;11.702;2023-04-15T07:12:58;94437.91;;;5.26;99.33
62103;BME280;48077;48.104;11.702;2023-04-15T07:15:21;94424.59;;;5.21;98.60
62103;BME280;48077;48.104;11.702;2023-04-15T07:17:48;94422.84;;;5.26;97.51
62103;BME280;48077;48.104;11.702;2023-04-15T07:20:12;94432.53;;;5.33;96.08
62103;BME280;48077;48.104;11.702;2023-04-15T07:22:36;94408.25;;;5.24;96.06
62103;BME280;48077;48.104;11.702;2023-04-15T07:24:59;94446.28;;;5.53;90.57
62103;BME280;48077;48.104;11.702;2023-04-15T07:27:23;94422.44;;;5.41;90.49
62103;BME280;48077;48.104;11.702;2023-04-15T07:29:46;94451.13;;;5.56;90.48
62103;BME280;48077;48.104;11.702;2023-04-15T07:32:10;94454.69;;;5.62;90.51
62103;BME280;48077;48.104;11.702;2023-04-15T07:34:33;94456.31;;;5.63;90.87
62103;BME280;48077;48.104;11.702;2023-04-15T07:37:00;94456.31;;;5.63;89.40
62103;BME280;48077;48.104;11.702;2023-04-15T07:39:23;94429.03;;;5.51;89.07
62103;BME280;48077;48.104;11.702;2023-04-15T07:41:47;94457.69;;;5.65;88.17
62103;BME280;48077;48.104;11.702;2023-04-15T07:44:11;94434.88;;;5.53;85.69
62103;BME280;48077;48.104;11.702;2023-04-15T07:46:34;94439.97;;;5.54;85.76
62103;BME280;48077;48.104;11.702;2023-04-15T07:48:59;94459.31;;;5.78;87.43
62103;BME280;48077;48.104;11.702;2023-04-15T07:51:22;94437.91;;;5.68;87.15
62103;BME280;48077;48.104;11.702;2023-04-15T07:53:47;94460.47;;;5.82;85.40
62103;BME280;48077;48.104;11.702;2023-04-15T07:56:11;94427.19;;;5.75;83.64
62103;BME280;48077;48.104;11.702;2023-04-15T07:58:37;94448.97;;;5.88;82.61
62103;BME280;48077;48.104;11.702;2023-04-15T08:01:01;94419.63;;;5.78;84.42
62103;BME280;48077;48.104;11.702;2023-04-15T08:03:26;94375.75;;;5.47;82.72
62103;BME280;48077;48.104;11.702;2023-04-15T08:05:50;94375.22;;;5.57;83.27
62103;BME280;48077;48.104;11.702;2023-04-15T08:08:13;94392.22;;;5.73;84.30
62103;BME280;48077;48.104;11.702;2023-04-15T08:10:36;94442.13;;;6.11;81.97
62103;BME280;48077;48.104;11.702;2023-04-15T08:13:00;94394.00;;;6.02;82.05
62103;BME280;48077;48.104;11.702;2023-04-15T08:15:24;94428.97;;;6.28;79.39
62103;BME280;48077;48.104;11.702;2023-04-15T08:17:47;94442.91;;;6.47;79.99
62103;BME280;48077;48.104;11.702;2023-04-15T08:20:11;94404.00;;;6.36;79.13
62103;BME280;48077;48.104;11.702;2023-04-15T08:22:35;94341.66;;;6.04;78.62
62103;BME280;48077;48.104;11.702;2023-04-15T08:25:01;94322.41;;;6.09;76.53
62103;BME280;48077;48.104;11.702;2023-04-15T08:27:28;94344.22;;;6.40;77.27
62103;BME280;48077;48.104;11.702;2023-04-15T08:29:51;94343.59;;;6.49;77.57
62103;BME280;48077;48.104;11.702;2023-04-15T08:32:15;94352.06;;;6.75;76.07
62103;BME280;48077;48.104;11.702;2023-04-15T08:34:41;94396.31;;;7.03;75.87
62103;BME280;48077;48.104;11.702;2023-04-15T08:37:04;94396.84;;;7.17;73.21
62103;BME280;48077;48.104;11.702;2023-04-15T08:39:29;94325.50;;;6.58;73.78
62103;BME280;48077;48.104;11.702;2023-04-15T08:44:22;94453.50;;;7.28;72.01
62103;BME280;48077;48.104;11.702;2023-04-15T08:46:47;94449.50;;;7.25;70.94
62103;BME280;48077;48.104;11.702;2023-04-15T08:49:11;94437.03;;;7.26;72.74
62103;BME280;48077;48.104;11.702;2023-04-15T08:51:35;94427.78;;;7.28;72.28
62103;BME280;48077;48.104;11.702;2023-04-15T08:53:59;94445.25;;;7.41;73.60
62103;BME280;48077;48.104;11.702;2023-04-15T08:56:25;94421.47;;;7.29;71.04
62103;BME280;48077;48.104;11.702;2023-04-15T08:58:51;94440.06;;;7.46;72.96
62103;BME280;48077;48.104;11.702;2023-04-15T09:01:15;94443.84;;;7.50;72.39
62103;BME280;48077;48.104;11.702;2023-04-15T09:03:40;94440.69;;;7.54;70.96
62103;BME280;48077;48.104;11.702;2023-04-15T09:06:04;94432.09;;;7.46;71.15
62103;BME280;48077;48.104;11.702;2023-04-15T09:08:28;94451.03;;;7.67;72.69
62103;BME280;48077;48.104;11.702;2023-04-15T09:10:52;94446.97;;;7.64;70.46
62103;BME280;48077;48.104;11.702;2023-04-15T09:13:17;94436.94;;;7.66;69.75
62103;BME280;48077;48.104;11.702;2023-04-15T09:15:40;94458.44;;;7.82;70.29
62103;BME280;48077;48.104;11.702;2023-04-15T09:18:04;94462.22;;;7.86;69.68
62103;BME280;48077;48.104;11.702;2023-04-15T09:20:28;94461.41;;;7.85;70.64
62103;BME280;48077;48.104;11.702;2023-04-15T09:22:52;94455.53;;;7.83;70.45
62103;BME280;48077;48.104;11.702;2023-04-15T09:27:48;94449.56;;;7.93;69.53
62103;BME280;48077;48.104;11.702;2023-04-15T09:30:11;94473.31;;;8.00;70.09
62103;BME280;48077;48.104;11.702;2023-04-15T09:32:49;94459.00;;;7.84;70.59
62103;BME280;48077;48.104;11.702;2023-04-15T09:35:14;94465.81;;;7.80;70.99
62103;BME280;48077;48.104;11.702;2023-04-15T09:37:37;94466.63;;;7.80;69.66
62103;BME280;48077;48.104;11.702;2023-04-15T09:40:00;94470.72;;;7.71;69.40
62103;BME280;48077;48.104;11.702;2023-04-15T09:42:24;94460.63;;;7.56;70.24
62103;BME280;48077;48.104;11.702;2023-04-15T09:44:49;94459.59;;;7.57;70.98
62103;BME280;48077;48.104;11.702;2023-04-15T09:47:26;94469.22;;;7.75;74.79
62103;BME280;48077;48.104;11.702;2023-04-15T09:49:57;94478.78;;;7.76;74.29
62103;BME280;48077;48.104;11.702;2023-04-15T09:52:21;94467.75;;;7.67;74.23
62103;BME280;48077;48.104;11.702;2023-04-15T09:54:44;94465.47;;;7.59;74.27
62103;BME280;48077;48.104;11.702;2023-04-15T09:57:08;94486.38;;;7.56;72.17
62103;BME280;48077;48.104;11.702;2023-04-15T09:59:35;94478.00;;;7.47;73.02
62103;BME280;48077;48.104;11.702;2023-04-15T10:01:58;94495.84;;;7.52;73.02
62103;BME280;48077;48.104;11.702;2023-04-15T10:04:22;94465.03;;;7.34;74.07
62103;BME280;48077;48.104;11.702;2023-04-15T10:06:47;94485.03;;;7.41;73.73
62103;BME280;48077;48.104;11.702;2023-04-15T10:09:10;94479.66;;;7.36;71.98
62103;BME280;48077;48.104;11.702;2023-04-15T10:11:34;94473.94;;;7.27;72.83
62103;BME280;48077;48.104;11.702;2023-04-15T10:13:58;94474.16;;;7.26;72.30
62103;BME280;48077;48.104;11.702;2023-04-15T10:16:25;94478.03;;;7.35;73.17
62103;BME280;48077;48.104;11.702;2023-04-15T10:18:56;94486.63;;;7.54;71.83
62103;BME280;48077;48.104;11.702;2023-04-15T10:21:20;94485.00;;;7.53;72.68
62103;BME280;48077;48.104;11.702;2023-04-15T10:23:45;94490.50;;;7.63;73.37
62103;BME280;48077;48.104;11.702;2023-04-15T10:26:11;94490.72;;;7.62;71.93
62103;BME280;48077;48.104;11.702;2023-04-15T10:28:37;94487.91;;;7.68;70.63
62103;BME280;48077;48.104;11.702;2023-04-15T10:31:01;94488.31;;;7.60;70.88
62103;BME280;48077;48.104;11.702;2023-04-15T10:33:27;94488.06;;;7.62;69.63
62103;BME280;48077;48.104;11.702;2023-04-15T10:35:53;94497.09;;;7.61;70.83
62103;BME280;48077;48.104;11.702;2023-04-15T10:38:31;94496.38;;;7.65;71.00
62103;BME280;48077;48.104;11.702;2023-04-15T10:41:14;94501.28;;;7.74;71.58
62103;BME280;48077;48.104;11.702;2023-04-15T10:43:38;94501.13;;;7.80;70.43
62103;BME280;48077;48.104;11.702;2023-04-15T10:46:04;94495.81;;;7.80;70.69
62103;BME280;48077;48.104;11.702;2023-04-15T10:48:29;94503.56;;;7.82;71.77
62103;BME280;48077;48.104;11.702;2023-04-15T10:50:59;94482.72;;;7.74;71.34
62103;BME280;48077;48.104;11.702;2023-04-15T10:53:27;94470.63;;;7.66;69.89
62103;BME280;48077;48.104;11.702;2023-04-15T10:55:51;94494.63;;;7.88;70.42
62103;BME280;48077;48.104;11.702;2023-04-15T10:58:17;94446.50;;;7.50;70.26
62103;BME280;48077;48.104;11.702;2023-04-15T11:00:49;94502.44;;;7.95;71.23
62103;BME280;48077;48.104;11.702;2023-04-15T11:03:14;94507.25;;;7.98;70.75
62103;BME280;48077;48.104;11.702;2023-04-15T11:08:03;94500.19;;;8.03;69.88
62103;BME280;48077;48.104;11.702;2023-04-15T11:13:01;94476.53;;;8.02;67.07
62103;BME280;48077;48.104;11.702;2023-04-15T11:17:57;94488.78;;;8.03;67.28
62103;BME280;48077;48.104;11.702;2023-04-15T11:20:21;94479.28;;;7.90;66.96
62103;BME280;48077;48.104;11.702;2023-04-15T11:22:54;94510.00;;;8.03;66.63
62103;BME280;48077;48.104;11.702;2023-04-15T11:25:22;94510.00;;;8.03;67.26
62103;BME280;48077;48.104;11.702;2023-04-15T11:27:45;94488.19;;;7.84;66.62
62103;BME280;48077;48.104;11.702;2023-04-15T11:30:17;94519.13;;;8.07;66.61
62103;BME280;48077;48.104;11.702;2023-04-15T11:32:42;94500.59;;;7.95;66.11
62103;BME280;48077;48.104;11.702;2023-04-15T11:35:06;94509.44;;;8.01;67.38
62103;BME280;48077;48.104;11.702;2023-04-15T11:37:30;94506.31;;;8.04;67.77
62103;BME280;48077;48.104;11.702;2023-04-15T11:39:54;94498.16;;;7.94;69.07
62103;BME280;48077;48.104;11.702;2023-04-15T11:42:20;94481.19;;;7.78;67.21
62103;BME280;48077;48.104;11.702;2023-04-15T11:44:43;94504.19;;;7.72;66.77
62103;BME280;48077;48.104;11.702;2023-04-15T11:47:22;94485.81;;;7.54;66.74
62103;BME280;48077;48.104;11.702;2023-04-15T11:49:48;94509.94;;;7.52;67.45
62103;BME280;48077;48.104;11.702;2023-04-15T11:52:11;94523.06;;;7.59;67.41
62103;BME280;48077;48.104;11.702;2023-04-15T11:54:35;94526.44;;;7.54;68.22
62103;BME280;48077;48.104;11.702;2023-04-15T11:57:00;94528.50;;;7.52;69.74
62103;BME280;48077;48.104;11.702;2023-04-15T11:59:24;94525.75;;;7.47;70.93
62103;BME280;48077;48.104;11.702;2023-04-15T12:01:48;94524.16;;;7.46;70.04
62103;BME280;48077;48.104;11.702;2023-04-15T12:04:13;94515.16;;;7.35;71.76
62103;BME280;48077;48.104;11.702;2023-04-15T12:06:37;94522.00;;;7.31;71.95
62103;BME280;48077;48.104;11.702;2023-04-15T12:09:14;94534.56;;;7.36;72.07
62103;BME280;48077;48.104;11.702;2023-04-15T12:11:44;94538.03;;;7.36;73.10
62103;BME280;48077;48.104;11.702;2023-04-15T12:14:10;94539.38;;;7.39;73.30
62103;BME280;48077;48.104;11.702;2023-04-15T12:16:36;94536.72;;;7.39;74.32
62103;BME280;48077;48.104;11.702;2023-04-15T12:19:04;94535.59;;;7.35;75.29
62103;BME280;48077;48.104;11.702;2023-04-15T12:21:34;94547.69;;;7.42;74.46
62103;BME280;48077;48.104;11.702;2023-04-15T12:24:01;94533.44;;;7.32;73.13
62103;BME280;48077;48.104;11.702;2023-04-15T12:26:47;94539.88;;;7.36;74.22
62103;BME280;48077;48.104;11.702;2023-04-15T12:29:10;94549.41;;;7.48;72.77
62103;BME280;48077;48.104;11.702;2023-04-15T12:31:34;94547.78;;;7.47;72.40
62103;BME280;48077;48.104;11.702;2023-04-15T12:33:59;94555.84;;;7.53;72.45
62103;BME280;48077;48.104;11.702;2023-04-15T12:36:23;94533.38;;;7.43;70.26
62103;BME280;48077;48.104;11.702;2023-04-15T12:38:46;94561.34;;;7.63;68.36
62103;BME280;48077;48.104;11.702;2023-04-15T12:41:10;94537.59;;;7.56;68.30
62103;BME280;48077;48.104;11.702;2023-04-15T12:43:33;94536.91;;;7.61;67.18
62103;BME280;48077;48.104;11.702;2023-04-15T12:45:56;94543.44;;;7.70;68.47
62103;BME280;48077;48.104;11.702;2023-04-15T12:48:20;94544.56;;;7.74;67.19
62103;BME280;48077;48.104;11.702;2023-04-15T12:50:43;94547.38;;;7.67;66.70
62103;BME280;48077;48.104;11.702;2023-04-15T12:53:06;94552.66;;;7.67;63.38
62103;BME280;48077;48.104;11.702;2023-04-15T12:55:31;94571.91;;;7.75;62.54
62103;BME280;48077;48.104;11.702;2023-04-15T12:57:57;94577.47;;;7.73;62.32